Terminal Aerodrome Forecast
Issued by NWS

Home | Current Version | Previous Version | Text Only | Print | Product List | Glossary On
Versions: 1 2 3 4 5 6 7 8 9 10 11 12 13 14
000
FTUS42 TJSJ 281130
TAFJPS
TAF
TJPS 281130Z 2812/2912 10015G25KT 6SM -SHRA SCT020 OVC050
     FM281500 12012KT P6SM VCSH SCT025 BKN060
     FM282300 VRB06KT P6SM SCT025 SCT060
      AMD NOT SKED TIL 290300=

USA.gov is the U.S. government's official web portal to all federal, state and local government web resources and services.